sensor_id;sensor_type;location;lat;lon;timestamp;P1;durP1;ratioP1;P2;durP2;ratioP2
15112;SDS011;7657;50.140;7.076;2022-08-19T00:01:48;9.23;;;7.38;;
15112;SDS011;7657;50.140;7.076;2022-08-19T00:04:17;7.68;;;6.88;;
15112;SDS011;7657;50.140;7.076;2022-08-19T00:06:46;9.38;;;7.10;;
15112;SDS011;7657;50.140;7.076;2022-08-19T00:09:14;8.20;;;6.50;;
15112;SDS011;7657;50.140;7.076;2022-08-19T00:11:45;8.38;;;6.90;;
15112;SDS011;7657;50.140;7.076;2022-08-19T00:14:13;7.55;;;6.78;;
15112;SDS011;7657;50.140;7.076;2022-08-19T00:16:42;7.40;;;6.70;;
15112;SDS011;7657;50.140;7.076;2022-08-19T00:19:10;7.32;;;6.63;;
15112;SDS011;7657;50.140;7.076;2022-08-19T00:21:37;9.77;;;7.38;;
15112;SDS011;7657;50.140;7.076;2022-08-19T00:24:04;8.70;;;7.35;;
15112;SDS011;7657;50.140;7.076;2022-08-19T00:26:32;9.68;;;7.57;;
15112;SDS011;7657;50.140;7.076;2022-08-19T00:29:00;8.55;;;7.65;;
15112;SDS011;7657;50.140;7.076;2022-08-19T00:31:28;9.15;;;7.40;;
15112;SDS011;7657;50.140;7.076;2022-08-19T00:33:56;9.07;;;7.82;;
15112;SDS011;7657;50.140;7.076;2022-08-19T00:36:23;9.60;;;7.20;;
15112;SDS011;7657;50.140;7.076;2022-08-19T00:38:50;8.57;;;7.30;;
15112;SDS011;7657;50.140;7.076;2022-08-19T00:41:18;7.40;;;6.65;;
15112;SDS011;7657;50.140;7.076;2022-08-19T00:43:56;8.77;;;7.13;;
15112;SDS011;7657;50.140;7.076;2022-08-19T00:46:26;8.65;;;7.10;;
15112;SDS011;7657;50.140;7.076;2022-08-19T00:48:53;9.07;;;7.85;;
15112;SDS011;7657;50.140;7.076;2022-08-19T00:51:21;10.68;;;8.18;;
15112;SDS011;7657;50.140;7.076;2022-08-19T00:53:48;8.63;;;7.72;;
15112;SDS011;7657;50.140;7.076;2022-08-19T00:56:15;10.32;;;8.25;;
15112;SDS011;7657;50.140;7.076;2022-08-19T00:58:43;9.43;;;8.43;;
15112;SDS011;7657;50.140;7.076;2022-08-19T01:01:10;9.65;;;8.65;;
15112;SDS011;7657;50.140;7.076;2022-08-19T01:03:40;10.25;;;8.43;;
15112;SDS011;7657;50.140;7.076;2022-08-19T01:06:07;12.25;;;7.75;;
15112;SDS011;7657;50.140;7.076;2022-08-19T01:08:34;9.25;;;8.35;;
15112;SDS011;7657;50.140;7.076;2022-08-19T01:11:01;8.65;;;7.75;;
15112;SDS011;7657;50.140;7.076;2022-08-19T01:13:29;8.95;;;8.05;;
15112;SDS011;7657;50.140;7.076;2022-08-19T01:16:00;9.30;;;7.47;;
15112;SDS011;7657;50.140;7.076;2022-08-19T01:18:29;9.15;;;7.93;;
15112;SDS011;7657;50.140;7.076;2022-08-19T01:21:05;8.73;;;7.82;;
15112;SDS011;7657;50.140;7.076;2022-08-19T01:23:36;9.85;;;8.18;;
15112;SDS011;7657;50.140;7.076;2022-08-19T01:26:10;9.15;;;8.23;;
15112;SDS011;7657;50.140;7.076;2022-08-19T01:28:39;12.27;;;8.65;;
15112;SDS011;7657;50.140;7.076;2022-08-19T01:31:07;12.10;;;8.82;;
15112;SDS011;7657;50.140;7.076;2022-08-19T01:33:37;9.55;;;8.63;;
15112;SDS011;7657;50.140;7.076;2022-08-19T01:36:05;9.55;;;8.55;;
15112;SDS011;7657;50.140;7.076;2022-08-19T01:38:36;10.50;;;8.65;;
15112;SDS011;7657;50.140;7.076;2022-08-19T01:41:06;10.32;;;9.25;;
15112;SDS011;7657;50.140;7.076;2022-08-19T01:43:34;9.90;;;8.90;;
15112;SDS011;7657;50.140;7.076;2022-08-19T01:46:01;9.75;;;8.52;;
15112;SDS011;7657;50.140;7.076;2022-08-19T01:48:32;11.13;;;9.23;;
15112;SDS011;7657;50.140;7.076;2022-08-19T01:51:00;11.18;;;9.38;;
15112;SDS011;7657;50.140;7.076;2022-08-19T01:53:27;11.18;;;9.98;;
15112;SDS011;7657;50.140;7.076;2022-08-19T01:55:56;10.40;;;9.07;;
15112;SDS011;7657;50.140;7.076;2022-08-19T01:58:24;11.15;;;9.52;;
15112;SDS011;7657;50.140;7.076;2022-08-19T02:00:55;13.02;;;10.68;;
15112;SDS011;7657;50.140;7.076;2022-08-19T02:03:23;13.70;;;10.60;;
15112;SDS011;7657;50.140;7.076;2022-08-19T02:05:53;14.35;;;11.88;;
15112;SDS011;7657;50.140;7.076;2022-08-19T02:08:21;12.85;;;11.55;;
15112;SDS011;7657;50.140;7.076;2022-08-19T02:10:48;12.38;;;11.07;;
15112;SDS011;7657;50.140;7.076;2022-08-19T02:13:17;13.63;;;11.25;;
15112;SDS011;7657;50.140;7.076;2022-08-19T02:15:44;11.77;;;10.57;;
15112;SDS011;7657;50.140;7.076;2022-08-19T02:18:12;13.05;;;11.52;;
15112;SDS011;7657;50.140;7.076;2022-08-19T02:20:40;11.77;;;10.57;;
15112;SDS011;7657;50.140;7.076;2022-08-19T02:23:08;13.15;;;11.75;;
15112;SDS011;7657;50.140;7.076;2022-08-19T02:25:36;15.30;;;12.50;;
15112;SDS011;7657;50.140;7.076;2022-08-19T02:28:04;13.18;;;10.60;;
15112;SDS011;7657;50.140;7.076;2022-08-19T02:30:32;11.93;;;10.57;;
15112;SDS011;7657;50.140;7.076;2022-08-19T02:32:59;12.70;;;11.35;;
15112;SDS011;7657;50.140;7.076;2022-08-19T02:35:26;13.35;;;11.93;;
15112;SDS011;7657;50.140;7.076;2022-08-19T02:37:53;13.98;;;11.13;;
15112;SDS011;7657;50.140;7.076;2022-08-19T02:40:38;13.15;;;11.45;;
15112;SDS011;7657;50.140;7.076;2022-08-19T02:43:05;16.23;;;11.10;;
15112;SDS011;7657;50.140;7.076;2022-08-19T02:45:36;13.25;;;10.85;;
15112;SDS011;7657;50.140;7.076;2022-08-19T02:48:04;13.90;;;11.77;;
15112;SDS011;7657;50.140;7.076;2022-08-19T02:50:32;14.02;;;12.07;;
15112;SDS011;7657;50.140;7.076;2022-08-19T02:52:59;13.50;;;12.10;;
15112;SDS011;7657;50.140;7.076;2022-08-19T02:55:26;12.10;;;10.40;;
15112;SDS011;7657;50.140;7.076;2022-08-19T02:57:53;13.88;;;11.27;;
15112;SDS011;7657;50.140;7.076;2022-08-19T03:00:22;13.82;;;12.25;;
15112;SDS011;7657;50.140;7.076;2022-08-19T03:02:51;13.68;;;12.27;;
15112;SDS011;7657;50.140;7.076;2022-08-19T03:05:18;14.02;;;12.60;;
15112;SDS011;7657;50.140;7.076;2022-08-19T03:07:45;14.32;;;12.82;;
15112;SDS011;7657;50.140;7.076;2022-08-19T03:10:12;14.75;;;13.20;;
15112;SDS011;7657;50.140;7.076;2022-08-19T03:12:39;15.05;;;13.45;;
15112;SDS011;7657;50.140;7.076;2022-08-19T03:15:06;14.13;;;12.65;;
15112;SDS011;7657;50.140;7.076;2022-08-19T03:17:34;15.02;;;13.43;;
15112;SDS011;7657;50.140;7.076;2022-08-19T03:20:03;15.25;;;13.65;;
15112;SDS011;7657;50.140;7.076;2022-08-19T03:22:31;14.88;;;13.07;;
15112;SDS011;7657;50.140;7.076;2022-08-19T03:24:58;15.55;;;13.82;;
15112;SDS011;7657;50.140;7.076;2022-08-19T03:27:25;15.75;;;12.55;;
15112;SDS011;7657;50.140;7.076;2022-08-19T03:29:52;11.82;;;10.55;;
15112;SDS011;7657;50.140;7.076;2022-08-19T03:32:19;11.23;;;9.13;;
15112;SDS011;7657;50.140;7.076;2022-08-19T03:34:46;9.90;;;8.43;;
15112;SDS011;7657;50.140;7.076;2022-08-19T03:37:15;12.32;;;9.20;;
15112;SDS011;7657;50.140;7.076;2022-08-19T03:39:42;10.50;;;8.35;;
15112;SDS011;7657;50.140;7.076;2022-08-19T03:42:09;10.82;;;9.75;;
15112;SDS011;7657;50.140;7.076;2022-08-19T03:44:37;11.15;;;9.73;;
15112;SDS011;7657;50.140;7.076;2022-08-19T03:47:04;13.30;;;10.77;;
15112;SDS011;7657;50.140;7.076;2022-08-19T03:49:31;11.93;;;10.02;;
15112;SDS011;7657;50.140;7.076;2022-08-19T03:52:00;13.70;;;11.25;;
15112;SDS011;7657;50.140;7.076;2022-08-19T03:54:28;13.65;;;10.65;;
15112;SDS011;7657;50.140;7.076;2022-08-19T03:56:56;12.43;;;10.93;;
15112;SDS011;7657;50.140;7.076;2022-08-19T03:59:24;12.43;;;9.90;;
15112;SDS011;7657;50.140;7.076;2022-08-19T04:01:54;12.45;;;10.85;;
15112;SDS011;7657;50.140;7.076;2022-08-19T04:04:22;12.52;;;10.75;;
15112;SDS011;7657;50.140;7.076;2022-08-19T04:06:49;14.43;;;10.98;;
15112;SDS011;7657;50.140;7.076;2022-08-19T04:09:17;13.00;;;10.70;;
15112;SDS011;7657;50.140;7.076;2022-08-19T04:11:47;11.93;;;10.63;;
15112;SDS011;7657;50.140;7.076;2022-08-19T04:14:19;12.40;;;11.10;;
15112;SDS011;7657;50.140;7.076;2022-08-19T04:16:49;13.60;;;11.30;;
15112;SDS011;7657;50.140;7.076;2022-08-19T04:19:17;12.32;;;10.63;;
15112;SDS011;7657;50.140;7.076;2022-08-19T04:21:45;11.90;;;10.23;;
15112;SDS011;7657;50.140;7.076;2022-08-19T04:24:15;12.60;;;10.55;;
15112;SDS011;7657;50.140;7.076;2022-08-19T04:26:42;11.70;;;10.48;;
15112;SDS011;7657;50.140;7.076;2022-08-19T04:29:12;12.38;;;10.15;;
15112;SDS011;7657;50.140;7.076;2022-08-19T04:31:42;14.40;;;11.63;;
15112;SDS011;7657;50.140;7.076;2022-08-19T04:34:11;11.80;;;10.70;;
15112;SDS011;7657;50.140;7.076;2022-08-19T04:36:40;12.38;;;11.07;;
15112;SDS011;7657;50.140;7.076;2022-08-19T04:39:10;11.70;;;9.63;;
15112;SDS011;7657;50.140;7.076;2022-08-19T04:41:38;9.70;;;8.80;;
15112;SDS011;7657;50.140;7.076;2022-08-19T04:44:24;10.68;;;9.68;;
15112;SDS011;7657;50.140;7.076;2022-08-19T04:46:55;10.63;;;9.52;;
15112;SDS011;7657;50.140;7.076;2022-08-19T04:49:23;11.13;;;9.85;;
15112;SDS011;7657;50.140;7.076;2022-08-19T04:51:51;11.35;;;10.18;;
15112;SDS011;7657;50.140;7.076;2022-08-19T04:54:20;11.88;;;10.73;;
15112;SDS011;7657;50.140;7.076;2022-08-19T04:56:50;10.85;;;9.70;;
15112;SDS011;7657;50.140;7.076;2022-08-19T04:59:17;11.50;;;9.68;;
15112;SDS011;7657;50.140;7.076;2022-08-19T05:01:47;12.68;;;10.52;;
15112;SDS011;7657;50.140;7.076;2022-08-19T05:04:15;11.35;;;9.98;;
15112;SDS011;7657;50.140;7.076;2022-08-19T05:06:44;15.25;;;10.48;;
15112;SDS011;7657;50.140;7.076;2022-08-19T05:09:12;11.63;;;10.43;;
15112;SDS011;7657;50.140;7.076;2022-08-19T05:11:39;11.70;;;10.48;;
15112;SDS011;7657;50.140;7.076;2022-08-19T05:14:06;11.45;;;10.10;;
15112;SDS011;7657;50.140;7.076;2022-08-19T05:16:34;11.45;;;10.25;;
15112;SDS011;7657;50.140;7.076;2022-08-19T05:19:03;11.55;;;10.35;;
15112;SDS011;7657;50.140;7.076;2022-08-19T05:21:47;13.13;;;11.25;;
15112;SDS011;7657;50.140;7.076;2022-08-19T05:24:31;10.02;;;9.10;;
15112;SDS011;7657;50.140;7.076;2022-08-19T05:26:59;10.77;;;9.65;;
15112;SDS011;7657;50.140;7.076;2022-08-19T05:29:28;10.75;;;9.68;;
15112;SDS011;7657;50.140;7.076;2022-08-19T05:31:57;11.38;;;10.18;;
15112;SDS011;7657;50.140;7.076;2022-08-19T05:34:26;12.32;;;10.20;;
15112;SDS011;7657;50.140;7.076;2022-08-19T05:36:54;14.05;;;12.55;;
15112;SDS011;7657;50.140;7.076;2022-08-19T05:39:23;15.00;;;12.52;;
15112;SDS011;7657;50.140;7.076;2022-08-19T05:41:55;15.55;;;13.32;;
15112;SDS011;7657;50.140;7.076;2022-08-19T05:44:25;15.02;;;13.43;;
15112;SDS011;7657;50.140;7.076;2022-08-19T05:46:53;15.45;;;13.57;;
15112;SDS011;7657;50.140;7.076;2022-08-19T05:49:21;16.15;;;14.45;;
15112;SDS011;7657;50.140;7.076;2022-08-19T05:51:51;15.85;;;13.82;;
15112;SDS011;7657;50.140;7.076;2022-08-19T05:54:18;16.90;;;14.15;;
15112;SDS011;7657;50.140;7.076;2022-08-19T05:56:45;15.80;;;14.20;;
15112;SDS011;7657;50.140;7.076;2022-08-19T05:59:14;16.10;;;14.50;;
15112;SDS011;7657;50.140;7.076;2022-08-19T06:01:43;18.42;;;15.80;;
15112;SDS011;7657;50.140;7.076;2022-08-19T06:04:11;17.70;;;15.68;;
15112;SDS011;7657;50.140;7.076;2022-08-19T06:06:39;17.35;;;15.55;;
15112;SDS011;7657;50.140;7.076;2022-08-19T06:09:08;17.15;;;15.05;;
15112;SDS011;7657;50.140;7.076;2022-08-19T06:11:36;16.95;;;15.25;;
15112;SDS011;7657;50.140;7.076;2022-08-19T06:14:05;16.23;;;14.45;;
15112;SDS011;7657;50.140;7.076;2022-08-19T06:16:34;17.20;;;14.45;;
15112;SDS011;7657;50.140;7.076;2022-08-19T06:19:04;17.15;;;15.35;;
15112;SDS011;7657;50.140;7.076;2022-08-19T06:21:33;17.08;;;15.48;;
15112;SDS011;7657;50.140;7.076;2022-08-19T06:24:03;16.70;;;15.10;;
15112;SDS011;7657;50.140;7.076;2022-08-19T06:26:32;15.93;;;14.43;;
15112;SDS011;7657;50.140;7.076;2022-08-19T06:29:00;14.15;;;12.65;;
15112;SDS011;7657;50.140;7.076;2022-08-19T06:31:28;17.98;;;15.23;;
15112;SDS011;7657;50.140;7.076;2022-08-19T06:33:58;18.42;;;16.42;;
15112;SDS011;7657;50.140;7.076;2022-08-19T06:36:28;18.85;;;16.75;;
15112;SDS011;7657;50.140;7.076;2022-08-19T06:38:59;17.88;;;16.02;;
15112;SDS011;7657;50.140;7.076;2022-08-19T06:41:27;17.17;;;15.43;;
15112;SDS011;7657;50.140;7.076;2022-08-19T06:43:56;16.27;;;14.45;;
15112;SDS011;7657;50.140;7.076;2022-08-19T06:46:23;19.10;;;16.88;;
15112;SDS011;7657;50.140;7.076;2022-08-19T06:48:51;17.70;;;15.90;;
15112;SDS011;7657;50.140;7.076;2022-08-19T06:51:19;17.63;;;15.73;;
15112;SDS011;7657;50.140;7.076;2022-08-19T06:53:49;17.17;;;14.55;;
15112;SDS011;7657;50.140;7.076;2022-08-19T06:56:18;17.88;;;15.63;;
15112;SDS011;7657;50.140;7.076;2022-08-19T06:58:47;16.45;;;14.65;;
15112;SDS011;7657;50.140;7.076;2022-08-19T07:01:18;18.52;;;16.33;;
15112;SDS011;7657;50.140;7.076;2022-08-19T07:03:45;19.35;;;14.98;;
15112;SDS011;7657;50.140;7.076;2022-08-19T07:06:13;17.50;;;15.57;;
15112;SDS011;7657;50.140;7.076;2022-08-19T07:08:42;16.85;;;15.15;;
15112;SDS011;7657;50.140;7.076;2022-08-19T07:11:11;18.00;;;16.10;;
15112;SDS011;7657;50.140;7.076;2022-08-19T07:13:41;17.05;;;14.48;;
15112;SDS011;7657;50.140;7.076;2022-08-19T07:16:09;15.18;;;13.55;;
15112;SDS011;7657;50.140;7.076;2022-08-19T07:18:39;14.38;;;12.73;;
15112;SDS011;7657;50.140;7.076;2022-08-19T07:21:08;16.88;;;12.60;;
15112;SDS011;7657;50.140;7.076;2022-08-19T07:23:36;13.05;;;11.70;;
15112;SDS011;7657;50.140;7.076;2022-08-19T07:26:05;13.38;;;11.65;;
15112;SDS011;7657;50.140;7.076;2022-08-19T07:28:33;12.25;;;10.95;;
15112;SDS011;7657;50.140;7.076;2022-08-19T07:31:04;11.35;;;10.25;;
15112;SDS011;7657;50.140;7.076;2022-08-19T07:33:31;11.90;;;10.18;;
15112;SDS011;7657;50.140;7.076;2022-08-19T07:36:02;12.52;;;10.00;;
15112;SDS011;7657;50.140;7.076;2022-08-19T07:38:30;11.48;;;10.18;;
15112;SDS011;7657;50.140;7.076;2022-08-19T07:40:57;10.75;;;8.90;;
15112;SDS011;7657;50.140;7.076;2022-08-19T07:43:24;9.98;;;8.80;;
15112;SDS011;7657;50.140;7.076;2022-08-19T07:45:51;8.63;;;7.82;;
15112;SDS011;7657;50.140;7.076;2022-08-19T07:48:21;8.77;;;7.85;;
15112;SDS011;7657;50.140;7.076;2022-08-19T07:50:50;9.23;;;7.82;;
15112;SDS011;7657;50.140;7.076;2022-08-19T07:53:19;9.52;;;7.95;;
15112;SDS011;7657;50.140;7.076;2022-08-19T07:55:46;9.27;;;7.82;;
15112;SDS011;7657;50.140;7.076;2022-08-19T07:58:14;8.48;;;6.95;;
15112;SDS011;7657;50.140;7.076;2022-08-19T08:00:43;10.25;;;7.03;;
15112;SDS011;7657;50.140;7.076;2022-08-19T08:03:11;7.80;;;6.95;;
15112;SDS011;7657;50.140;7.076;2022-08-19T08:05:39;9.02;;;7.95;;
15112;SDS011;7657;50.140;7.076;2022-08-19T08:08:26;10.27;;;7.80;;
15112;SDS011;7657;50.140;7.076;2022-08-19T08:11:11;7.97;;;7.18;;
15112;SDS011;7657;50.140;7.076;2022-08-19T08:13:39;8.02;;;7.22;;
15112;SDS011;7657;50.140;7.076;2022-08-19T08:16:06;7.63;;;6.90;;
15112;SDS011;7657;50.140;7.076;2022-08-19T08:18:33;7.95;;;7.13;;
15112;SDS011;7657;50.140;7.076;2022-08-19T08:21:06;8.18;;;7.32;;
15112;SDS011;7657;50.140;7.076;2022-08-19T08:23:35;8.63;;;7.75;;
15112;SDS011;7657;50.140;7.076;2022-08-19T08:26:02;9.10;;;7.88;;
15112;SDS011;7657;50.140;7.076;2022-08-19T08:28:29;11.05;;;9.30;;
15112;SDS011;7657;50.140;7.076;2022-08-19T08:30:57;10.43;;;9.43;;
15112;SDS011;7657;50.140;7.076;2022-08-19T08:33:26;10.25;;;7.88;;
15112;SDS011;7657;50.140;7.076;2022-08-19T08:35:55;10.57;;;8.18;;
15112;SDS011;7657;50.140;7.076;2022-08-19T08:38:22;8.43;;;7.53;;
15112;SDS011;7657;50.140;7.076;2022-08-19T08:40:52;9.73;;;7.50;;
15112;SDS011;7657;50.140;7.076;2022-08-19T08:43:32;8.65;;;7.75;;
15112;SDS011;7657;50.140;7.076;2022-08-19T08:46:03;10.07;;;8.40;;
15112;SDS011;7657;50.140;7.076;2022-08-19T08:48:37;9.43;;;8.48;;
15112;SDS011;7657;50.140;7.076;2022-08-19T08:51:09;7.72;;;6.97;;
15112;SDS011;7657;50.140;7.076;2022-08-19T08:53:39;10.13;;;8.43;;
15112;SDS011;7657;50.140;7.076;2022-08-19T08:56:10;8.82;;;7.93;;
15112;SDS011;7657;50.140;7.076;2022-08-19T08:58:41;9.77;;;8.73;;
15112;SDS011;7657;50.140;7.076;2022-08-19T09:01:16;8.98;;;8.07;;
15112;SDS011;7657;50.140;7.076;2022-08-19T09:03:44;9.05;;;7.97;;
15112;SDS011;7657;50.140;7.076;2022-08-19T09:06:14;10.45;;;9.35;;
15112;SDS011;7657;50.140;7.076;2022-08-19T09:08:48;8.18;;;6.95;;
15112;SDS011;7657;50.140;7.076;2022-08-19T09:11:24;8.52;;;7.53;;
15112;SDS011;7657;50.140;7.076;2022-08-19T09:14:04;9.80;;;8.48;;
15112;SDS011;7657;50.140;7.076;2022-08-19T09:16:41;10.02;;;9.02;;
15112;SDS011;7657;50.140;7.076;2022-08-19T09:19:08;8.50;;;7.63;;
15112;SDS011;7657;50.140;7.076;2022-08-19T09:21:36;10.30;;;8.77;;
15112;SDS011;7657;50.140;7.076;2022-08-19T09:24:03;9.73;;;7.63;;
15112;SDS011;7657;50.140;7.076;2022-08-19T09:26:32;6.32;;;5.20;;
15112;SDS011;7657;50.140;7.076;2022-08-19T09:29:00;6.60;;;5.95;;
15112;SDS011;7657;50.140;7.076;2022-08-19T09:31:30;5.50;;;5.00;;
15112;SDS011;7657;50.140;7.076;2022-08-19T09:33:57;6.38;;;5.43;;
15112;SDS011;7657;50.140;7.076;2022-08-19T09:36:25;7.45;;;6.65;;
15112;SDS011;7657;50.140;7.076;2022-08-19T09:38:57;7.30;;;6.60;;
15112;SDS011;7657;50.140;7.076;2022-08-19T09:41:25;8.75;;;7.85;;
15112;SDS011;7657;50.140;7.076;2022-08-19T09:43:57;7.53;;;6.75;;
15112;SDS011;7657;50.140;7.076;2022-08-19T09:46:25;7.57;;;5.50;;
15112;SDS011;7657;50.140;7.076;2022-08-19T09:48:53;7.03;;;6.32;;
15112;SDS011;7657;50.140;7.076;2022-08-19T09:51:22;5.82;;;5.32;;
15112;SDS011;7657;50.140;7.076;2022-08-19T09:53:53;7.80;;;7.10;;
15112;SDS011;7657;50.140;7.076;2022-08-19T09:56:22;8.13;;;6.90;;
15112;SDS011;7657;50.140;7.076;2022-08-19T09:58:49;8.07;;;7.28;;
15112;SDS011;7657;50.140;7.076;2022-08-19T10:01:18;8.55;;;7.53;;
15112;SDS011;7657;50.140;7.076;2022-08-19T10:03:48;7.93;;;6.85;;
15112;SDS011;7657;50.140;7.076;2022-08-19T10:06:16;7.80;;;6.75;;
15112;SDS011;7657;50.140;7.076;2022-08-19T10:08:44;8.23;;;7.10;;
15112;SDS011;7657;50.140;7.076;2022-08-19T10:11:12;7.65;;;6.95;;
15112;SDS011;7657;50.140;7.076;2022-08-19T10:13:42;7.50;;;6.78;;
15112;SDS011;7657;50.140;7.076;2022-08-19T10:16:10;7.88;;;7.03;;
15112;SDS011;7657;50.140;7.076;2022-08-19T10:18:40;8.30;;;6.05;;
15112;SDS011;7657;50.140;7.076;2022-08-19T10:21:09;6.55;;;5.88;;
15112;SDS011;7657;50.140;7.076;2022-08-19T10:23:39;7.47;;;6.32;;
15112;SDS011;7657;50.140;7.076;2022-08-19T10:26:10;6.05;;;5.45;;
15112;SDS011;7657;50.140;7.076;2022-08-19T10:28:38;6.43;;;5.82;;
15112;SDS011;7657;50.140;7.076;2022-08-19T10:31:05;7.40;;;6.70;;
15112;SDS011;7657;50.140;7.076;2022-08-19T10:33:34;6.80;;;5.80;;
15112;SDS011;7657;50.140;7.076;2022-08-19T10:36:04;6.50;;;5.90;;
15112;SDS011;7657;50.140;7.076;2022-08-19T10:38:32;6.30;;;5.70;;
15112;SDS011;7657;50.140;7.076;2022-08-19T10:41:05;8.50;;;6.00;;
15112;SDS011;7657;50.140;7.076;2022-08-19T10:43:33;6.43;;;5.80;;
15112;SDS011;7657;50.140;7.076;2022-08-19T10:46:03;7.07;;;5.95;;
15112;SDS011;7657;50.140;7.076;2022-08-19T10:48:31;6.65;;;5.72;;
15112;SDS011;7657;50.140;7.076;2022-08-19T10:50:59;7.10;;;5.55;;
15112;SDS011;7657;50.140;7.076;2022-08-19T10:53:45;6.15;;;5.55;;
15112;SDS011;7657;50.140;7.076;2022-08-19T10:56:12;6.78;;;5.97;;
15112;SDS011;7657;50.140;7.076;2022-08-19T10:58:56;7.07;;;6.32;;
15112;SDS011;7657;50.140;7.076;2022-08-19T11:01:24;6.65;;;6.05;;
15112;SDS011;7657;50.140;7.076;2022-08-19T11:03:51;7.20;;;6.28;;
15112;SDS011;7657;50.140;7.076;2022-08-19T11:06:18;6.97;;;6.28;;
15112;SDS011;7657;50.140;7.076;2022-08-19T11:08:47;6.80;;;6.13;;
15112;SDS011;7657;50.140;7.076;2022-08-19T11:11:14;6.30;;;5.68;;
15112;SDS011;7657;50.140;7.076;2022-08-19T11:13:41;5.97;;;5.40;;
15112;SDS011;7657;50.140;7.076;2022-08-19T11:16:10;5.95;;;5.32;;
15112;SDS011;7657;50.140;7.076;2022-08-19T11:18:40;6.32;;;5.63;;
15112;SDS011;7657;50.140;7.076;2022-08-19T11:21:09;6.85;;;5.85;;
15112;SDS011;7657;50.140;7.076;2022-08-19T11:23:38;6.63;;;5.90;;
15112;SDS011;7657;50.140;7.076;2022-08-19T11:26:07;6.75;;;6.03;;
15112;SDS011;7657;50.140;7.076;2022-08-19T11:28:34;7.43;;;5.90;;
15112;SDS011;7657;50.140;7.076;2022-08-19T11:31:01;6.40;;;5.80;;
15112;SDS011;7657;50.140;7.076;2022-08-19T11:33:29;7.07;;;6.10;;
15112;SDS011;7657;50.140;7.076;2022-08-19T11:35:56;5.93;;;5.35;;
15112;SDS011;7657;50.140;7.076;2022-08-19T11:38:25;5.90;;;5.35;;
15112;SDS011;7657;50.140;7.076;2022-08-19T11:40:56;5.57;;;4.97;;
15112;SDS011;7657;50.140;7.076;2022-08-19T11:43:26;5.80;;;5.25;;
15112;SDS011;7657;50.140;7.076;2022-08-19T11:45:54;5.57;;;5.05;;
15112;SDS011;7657;50.140;7.076;2022-08-19T11:48:21;6.88;;;5.55;;
15112;SDS011;7657;50.140;7.076;2022-08-19T11:50:48;6.82;;;5.50;;
15112;SDS011;7657;50.140;7.076;2022-08-19T11:53:15;6.00;;;5.10;;
15112;SDS011;7657;50.140;7.076;2022-08-19T11:55:44;7.28;;;5.40;;
15112;SDS011;7657;50.140;7.076;2022-08-19T11:58:11;6.40;;;5.78;;
15112;SDS011;7657;50.140;7.076;2022-08-19T12:00:40;6.13;;;5.53;;
15112;SDS011;7657;50.140;7.076;2022-08-19T12:03:07;6.15;;;5.20;;
15112;SDS011;7657;50.140;7.076;2022-08-19T12:05:36;6.25;;;5.43;;
15112;SDS011;7657;50.140;7.076;2022-08-19T12:08:03;6.30;;;5.10;;
15112;SDS011;7657;50.140;7.076;2022-08-19T12:10:30;5.63;;;5.05;;
15112;SDS011;7657;50.140;7.076;2022-08-19T12:12:57;6.15;;;5.55;;
15112;SDS011;7657;50.140;7.076;2022-08-19T12:15:25;6.68;;;5.35;;
15112;SDS011;7657;50.140;7.076;2022-08-19T12:17:55;7.28;;;5.07;;
15112;SDS011;7657;50.140;7.076;2022-08-19T12:20:23;6.50;;;5.90;;
15112;SDS011;7657;50.140;7.076;2022-08-19T12:22:51;6.90;;;6.20;;
15112;SDS011;7657;50.140;7.076;2022-08-19T12:25:18;6.25;;;5.65;;
15112;SDS011;7657;50.140;7.076;2022-08-19T12:27:48;6.32;;;5.63;;
15112;SDS011;7657;50.140;7.076;2022-08-19T12:30:15;7.90;;;6.75;;
15112;SDS011;7657;50.140;7.076;2022-08-19T12:32:42;7.93;;;6.38;;
15112;SDS011;7657;50.140;7.076;2022-08-19T12:35:10;7.32;;;6.63;;
15112;SDS011;7657;50.140;7.076;2022-08-19T12:37:38;8.35;;;7.05;;
15112;SDS011;7657;50.140;7.076;2022-08-19T12:40:09;8.50;;;7.57;;
15112;SDS011;7657;50.140;7.076;2022-08-19T12:42:38;9.55;;;8.02;;
15112;SDS011;7657;50.140;7.076;2022-08-19T12:45:07;9.27;;;7.70;;
15112;SDS011;7657;50.140;7.076;2022-08-19T12:47:35;8.50;;;7.35;;
15112;SDS011;7657;50.140;7.076;2022-08-19T12:50:02;8.38;;;6.90;;
15112;SDS011;7657;50.140;7.076;2022-08-19T12:52:35;9.15;;;7.60;;
15112;SDS011;7657;50.140;7.076;2022-08-19T12:55:03;8.55;;;7.38;;
15112;SDS011;7657;50.140;7.076;2022-08-19T12:57:33;9.27;;;8.20;;
15112;SDS011;7657;50.140;7.076;2022-08-19T13:00:02;9.77;;;8.05;;
15112;SDS011;7657;50.140;7.076;2022-08-19T13:02:33;8.60;;;7.70;;
15112;SDS011;7657;50.140;7.076;2022-08-19T13:05:01;10.85;;;7.57;;
15112;SDS011;7657;50.140;7.076;2022-08-19T13:07:28;7.68;;;6.40;;
15112;SDS011;7657;50.140;7.076;2022-08-19T13:09:57;7.88;;;7.07;;
15112;SDS011;7657;50.140;7.076;2022-08-19T13:12:24;7.88;;;7.07;;
15112;SDS011;7657;50.140;7.076;2022-08-19T13:14:51;8.82;;;7.13;;
15112;SDS011;7657;50.140;7.076;2022-08-19T13:17:18;7.72;;;6.82;;
15112;SDS011;7657;50.140;7.076;2022-08-19T13:19:45;7.97;;;6.40;;
15112;SDS011;7657;50.140;7.076;2022-08-19T13:22:12;6.88;;;6.10;;
15112;SDS011;7657;50.140;7.076;2022-08-19T13:24:39;6.75;;;6.05;;
15112;SDS011;7657;50.140;7.076;2022-08-19T13:27:08;9.50;;;6.05;;
15112;SDS011;7657;50.140;7.076;2022-08-19T13:29:35;6.43;;;5.22;;
15112;SDS011;7657;50.140;7.076;2022-08-19T13:32:19;6.35;;;5.63;;
15112;SDS011;7657;50.140;7.076;2022-08-19T13:35:04;6.07;;;5.47;;
15112;SDS011;7657;50.140;7.076;2022-08-19T13:37:31;6.43;;;5.57;;
15112;SDS011;7657;50.140;7.076;2022-08-19T13:40:08;6.32;;;5.72;;
15112;SDS011;7657;50.140;7.076;2022-08-19T13:42:39;6.03;;;5.43;;
15112;SDS011;7657;50.140;7.076;2022-08-19T13:45:06;5.65;;;4.95;;
15112;SDS011;7657;50.140;7.076;2022-08-19T13:47:34;5.82;;;5.22;;
15112;SDS011;7657;50.140;7.076;2022-08-19T13:50:09;7.38;;;5.00;;
15112;SDS011;7657;50.140;7.076;2022-08-19T13:52:37;5.60;;;5.10;;
15112;SDS011;7657;50.140;7.076;2022-08-19T13:55:04;5.50;;;4.93;;
15112;SDS011;7657;50.140;7.076;2022-08-19T13:57:32;5.22;;;4.30;;
15112;SDS011;7657;50.140;7.076;2022-08-19T14:00:02;4.45;;;4.05;;
15112;SDS011;7657;50.140;7.076;2022-08-19T14:02:30;5.60;;;4.50;;
15112;SDS011;7657;50.140;7.076;2022-08-19T14:04:57;4.45;;;4.05;;
15112;SDS011;7657;50.140;7.076;2022-08-19T14:07:25;4.50;;;3.90;;
15112;SDS011;7657;50.140;7.076;2022-08-19T14:09:52;4.03;;;3.72;;
15112;SDS011;7657;50.140;7.076;2022-08-19T14:12:19;5.10;;;4.03;;
15112;SDS011;7657;50.140;7.076;2022-08-19T14:14:46;4.18;;;3.70;;
15112;SDS011;7657;50.140;7.076;2022-08-19T14:17:15;5.38;;;3.63;;
15112;SDS011;7657;50.140;7.076;2022-08-19T14:19:42;4.30;;;3.90;;
15112;SDS011;7657;50.140;7.076;2022-08-19T14:22:09;4.32;;;3.92;;
15112;SDS011;7657;50.140;7.076;2022-08-19T14:24:36;6.68;;;3.90;;
15112;SDS011;7657;50.140;7.076;2022-08-19T14:27:04;7.05;;;4.85;;
15112;SDS011;7657;50.140;7.076;2022-08-19T14:29:31;6.97;;;5.72;;
15112;SDS011;7657;50.140;7.076;2022-08-19T14:31:59;8.18;;;5.28;;
15112;SDS011;7657;50.140;7.076;2022-08-19T14:34:27;7.20;;;5.50;;
15112;SDS011;7657;50.140;7.076;2022-08-19T14:36:56;5.78;;;4.95;;
15112;SDS011;7657;50.140;7.076;2022-08-19T14:39:23;5.95;;;5.35;;
15112;SDS011;7657;50.140;7.076;2022-08-19T14:41:50;6.32;;;5.05;;
15112;SDS011;7657;50.140;7.076;2022-08-19T14:44:17;6.22;;;5.53;;
15112;SDS011;7657;50.140;7.076;2022-08-19T14:46:44;6.05;;;5.45;;
15112;SDS011;7657;50.140;7.076;2022-08-19T14:49:11;10.90;;;6.93;;
15112;SDS011;7657;50.140;7.076;2022-08-19T14:51:40;7.97;;;6.15;;
15112;SDS011;7657;50.140;7.076;2022-08-19T14:54:06;6.85;;;5.63;;
15112;SDS011;7657;50.140;7.076;2022-08-19T14:56:33;6.40;;;5.60;;
15112;SDS011;7657;50.140;7.076;2022-08-19T14:59:01;6.30;;;5.68;;
15112;SDS011;7657;50.140;7.076;2022-08-19T15:01:28;6.53;;;5.82;;